createdAt,value
2022-10-01T00:01:30.322Z,51.83
2022-10-01T00:03:58.778Z,55.83
2022-10-01T00:06:26.852Z,52.40
2022-10-01T00:08:55.144Z,54.90
2022-10-01T00:11:25.110Z,52.88
2022-10-01T00:13:54.347Z,52.22
2022-10-01T00:16:25.517Z,52.17
2022-10-01T00:18:55.798Z,46.90
2022-10-01T00:21:25.896Z,48.05
2022-10-01T00:23:56.072Z,45.95
2022-10-01T00:26:28.258Z,47.80
2022-10-01T00:31:25.779Z,45.83
2022-10-01T00:33:55.978Z,43.40
2022-10-01T00:36:24.421Z,42.53
2022-10-01T00:38:52.487Z,44.72
2022-10-01T00:41:20.816Z,41.92
2022-10-01T00:43:53.679Z,45.33
2022-10-01T00:46:25.517Z,44.83
2022-10-01T00:48:59.219Z,41.17
2022-10-01T00:51:30.967Z,42.13
2022-10-01T00:54:02.844Z,41.33
2022-10-01T00:56:31.604Z,44.55
2022-10-01T00:59:00.338Z,41.35
2022-10-01T01:01:28.886Z,42.17
2022-10-01T01:03:59.118Z,40.83
2022-10-01T01:06:27.201Z,39.40
2022-10-01T01:08:55.932Z,42.45
2022-10-01T01:11:30.577Z,41.25
2022-10-01T01:14:03.851Z,41.40
2022-10-01T01:16:35.589Z,39.22
2022-10-01T01:19:10.600Z,43.05
2022-10-01T01:21:42.712Z,41.70
2022-10-01T01:24:35.330Z,40.42
2022-10-01T01:27:16.497Z,38.17
2022-10-01T01:29:52.521Z,44.03
2022-10-01T01:32:27.761Z,38.00
2022-10-01T01:35:02.389Z,45.42
2022-10-01T01:37:34.831Z,42.47
2022-10-01T01:40:05.201Z,47.17
2022-10-01T01:42:36.842Z,45.13
2022-10-01T01:45:09.971Z,45.13
2022-10-01T01:47:39.836Z,46.85
2022-10-01T01:50:08.776Z,44.50
2022-10-01T01:52:37.510Z,48.13
2022-10-01T01:55:08.572Z,45.00
2022-10-01T01:57:39.304Z,46.17
2022-10-01T02:00:11.563Z,47.73
2022-10-01T02:02:41.732Z,51.92
2022-10-01T02:05:11.536Z,51.13
2022-10-01T02:08:14.346Z,51.10
2022-10-01T02:10:55.821Z,49.55
2022-10-01T02:13:31.151Z,48.70
2022-10-01T02:16:06.281Z,53.67
2022-10-01T02:18:40.616Z,52.35
2022-10-01T02:21:12.442Z,51.22
2022-10-01T02:23:45.422Z,49.35
2022-10-01T02:26:17.626Z,48.38
2022-10-01T02:28:47.787Z,50.33
2022-10-01T02:31:19.191Z,45.13
2022-10-01T02:33:48.692Z,51.47
2022-10-01T02:36:17.646Z,52.03
2022-10-01T02:38:47.087Z,46.10
2022-10-01T02:41:17.431Z,47.58
2022-10-01T02:43:51.786Z,49.88
2022-10-01T02:46:28.626Z,45.83
2022-10-01T02:48:57.097Z,48.72
2022-10-01T02:51:34.309Z,43.55
2022-10-01T02:54:07.367Z,46.65
2022-10-01T02:56:56.275Z,46.45
2022-10-01T02:59:24.617Z,48.13
2022-10-01T03:01:54.432Z,48.85
2022-10-01T03:04:22.610Z,52.17
2022-10-01T03:06:50.924Z,44.58
2022-10-01T03:09:19.248Z,49.53
2022-10-01T03:11:47.420Z,46.22
2022-10-01T03:14:15.598Z,47.70
2022-10-01T03:16:43.970Z,45.85
2022-10-01T03:19:13.662Z,47.75
2022-10-01T03:21:41.793Z,48.55
2022-10-01T03:24:10.369Z,51.65
2022-10-01T03:26:38.848Z,52.42
2022-10-01T03:29:07.202Z,46.50
2022-10-01T03:31:35.953Z,48.50
2022-10-01T03:34:04.613Z,53.28
2022-10-01T03:36:34.229Z,48.83
2022-10-01T03:39:02.647Z,51.72
2022-10-01T03:41:30.994Z,55.05
2022-10-01T03:44:00.624Z,54.70
2022-10-01T03:46:29.214Z,57.50
2022-10-01T03:49:01.036Z,51.70
2022-10-01T03:51:29.353Z,54.45
2022-10-01T03:53:59.696Z,51.53
2022-10-01T03:56:27.877Z,58.28
2022-10-01T03:58:56.023Z,55.38
2022-10-01T04:01:24.404Z,59.28
2022-10-01T04:03:52.716Z,58.92
2022-10-01T04:06:20.948Z,56.70
2022-10-01T04:08:50.415Z,50.83
2022-10-01T04:11:19.923Z,50.17
2022-10-01T04:13:48.263Z,49.00
2022-10-01T04:16:16.921Z,43.03
2022-10-01T04:18:45.143Z,39.65
2022-10-01T04:21:15.405Z,41.00
2022-10-01T04:23:43.823Z,52.22
2022-10-01T04:26:11.973Z,48.80
2022-10-01T04:28:41.473Z,51.30
2022-10-01T04:31:28.062Z,51.92
2022-10-01T04:33:57.489Z,50.75
2022-10-01T04:36:27.040Z,49.28
2022-10-01T04:39:00.849Z,44.10
2022-10-01T04:41:31.901Z,43.78
2022-10-01T04:44:01.887Z,45.28
2022-10-01T04:46:30.873Z,46.63
2022-10-01T04:48:59.443Z,47.10
2022-10-01T04:51:27.444Z,45.60
2022-10-01T04:53:55.695Z,42.60
2022-10-01T04:56:23.928Z,34.58
2022-10-01T04:58:51.990Z,34.65
2022-10-01T05:01:21.541Z,37.25
2022-10-01T05:03:49.899Z,37.42
2022-10-01T05:06:18.087Z,37.83
2022-10-01T05:08:46.088Z,38.05
2022-10-01T05:11:14.295Z,38.05
2022-10-01T05:13:42.404Z,33.97
2022-10-01T05:16:11.893Z,42.10
2022-10-01T05:18:41.667Z,58.53
2022-10-01T05:21:11.771Z,40.47
2022-10-01T05:23:39.957Z,40.22
2022-10-01T05:26:08.518Z,44.75
2022-10-01T05:28:37.226Z,46.35
2022-10-01T05:31:05.800Z,37.55
2022-10-01T05:33:34.598Z,37.45
2022-10-01T05:36:05.331Z,40.67
2022-10-01T05:38:36.275Z,37.65
2022-10-01T05:41:05.035Z,37.05
2022-10-01T05:43:33.333Z,38.15
2022-10-01T05:46:02.768Z,41.22
2022-10-01T05:48:36.949Z,45.03
2022-10-01T05:51:08.392Z,42.28
2022-10-01T05:53:38.162Z,43.35
2022-10-01T05:56:07.011Z,41.88
2022-10-01T05:58:35.592Z,45.15
2022-10-01T06:01:04.244Z,44.50
2022-10-01T06:03:32.566Z,44.15
2022-10-01T06:06:00.920Z,41.92
2022-10-01T06:08:30.582Z,40.55
2022-10-01T06:11:02.568Z,44.20
2022-10-01T06:13:32.126Z,43.13
2022-10-01T06:16:00.367Z,41.75
2022-10-01T06:18:28.561Z,40.92
2022-10-01T06:20:59.423Z,43.35
2022-10-01T06:23:27.556Z,38.03
2022-10-01T06:25:57.178Z,39.95
2022-10-01T06:28:25.503Z,43.10
2022-10-01T06:30:54.021Z,53.35
2022-10-01T06:33:22.230Z,42.53
2022-10-01T06:35:51.740Z,42.47
2022-10-01T06:38:21.656Z,43.28
2022-10-01T06:40:54.715Z,43.97
2022-10-01T06:43:24.761Z,40.38
2022-10-01T06:45:53.187Z,44.65
2022-10-01T06:48:21.976Z,41.35
2022-10-01T06:50:52.365Z,40.53
2022-10-01T06:53:20.485Z,42.33
2022-10-01T06:55:51.061Z,42.88
2022-10-01T06:58:21.127Z,45.35
2022-10-01T07:00:51.535Z,39.88
2022-10-01T07:03:21.226Z,38.50
2022-10-01T07:05:49.763Z,46.08
2022-10-01T07:08:18.154Z,45.40
2022-10-01T07:10:46.777Z,48.88
2022-10-01T07:13:16.541Z,44.85
2022-10-01T07:15:45.466Z,42.33
2022-10-01T07:18:15.441Z,39.28
2022-10-01T07:20:43.844Z,39.65
2022-10-01T07:23:13.668Z,30.67
2022-10-01T07:25:51.394Z,38.90
2022-10-01T07:28:24.099Z,38.67
2022-10-01T07:30:59.728Z,39.70
2022-10-01T07:33:29.968Z,41.58
2022-10-01T07:36:01.576Z,46.30
2022-10-01T07:38:29.986Z,41.95
2022-10-01T07:40:59.101Z,39.05
2022-10-01T07:43:27.444Z,41.38
2022-10-01T07:45:58.277Z,36.22
2022-10-01T07:48:26.828Z,36.97
2022-10-01T07:50:57.947Z,37.50
2022-10-01T07:53:26.427Z,38.15
2022-10-01T07:55:54.673Z,39.28
2022-10-01T07:58:24.283Z,40.45
2022-10-01T08:00:56.309Z,36.83
2022-10-01T08:03:24.518Z,31.13
2022-10-01T08:05:54.865Z,34.28
2022-10-01T08:08:24.671Z,37.60
2022-10-01T08:10:52.906Z,36.95
2022-10-01T08:13:24.989Z,37.25
2022-10-01T08:15:54.997Z,33.60
2022-10-01T08:18:23.852Z,35.22
2022-10-01T08:20:52.597Z,41.08
2022-10-01T08:23:21.733Z,35.95
2022-10-01T08:25:51.216Z,35.08
2022-10-01T08:28:19.743Z,36.50
2022-10-01T08:30:48.265Z,37.42
2022-10-01T08:33:16.457Z,35.45
2022-10-01T08:35:44.975Z,45.60
2022-10-01T08:38:13.692Z,37.92
2022-10-01T08:40:47.536Z,39.03
2022-10-01T08:43:30.308Z,32.60
2022-10-01T08:46:01.807Z,34.83
2022-10-01T08:48:54.785Z,34.55
2022-10-01T08:51:29.040Z,31.02
2022-10-01T08:53:59.502Z,35.03
2022-10-01T08:56:31.109Z,33.45
2022-10-01T08:59:03.367Z,29.33
2022-10-01T09:01:31.700Z,27.65
2022-10-01T09:04:00.647Z,28.98
2022-10-01T09:06:29.584Z,31.77
2022-10-01T09:09:15.269Z,33.38
2022-10-01T09:11:56.063Z,29.67
2022-10-01T09:14:36.174Z,25.70
2022-10-01T09:17:07.431Z,23.88
2022-10-01T09:19:54.631Z,32.65
2022-10-01T09:22:31.886Z,28.67
2022-10-01T09:25:07.276Z,30.20
2022-10-01T09:27:35.888Z,23.63
2022-10-01T09:30:08.399Z,21.80
2022-10-01T09:32:40.976Z,29.13
2022-10-01T09:35:21.146Z,29.48
2022-10-01T09:37:54.795Z,27.63
2022-10-01T09:40:28.276Z,28.00
2022-10-01T09:42:57.634Z,29.38
2022-10-01T09:45:27.570Z,36.30
2022-10-01T09:47:59.905Z,38.03
2022-10-01T09:50:32.672Z,44.08
2022-10-01T09:53:01.555Z,36.67
2022-10-01T09:55:32.919Z,33.35
2022-10-01T09:58:04.672Z,38.13
2022-10-01T10:00:34.793Z,33.08
2022-10-01T10:03:03.133Z,35.75
2022-10-01T10:05:40.966Z,37.78
2022-10-01T10:08:13.747Z,38.60
2022-10-01T10:10:50.835Z,37.38
2022-10-01T10:13:21.721Z,36.88
2022-10-01T10:15:55.072Z,36.63
2022-10-01T10:18:29.100Z,36.97
2022-10-01T10:20:57.922Z,35.70
2022-10-01T10:23:29.161Z,38.40
2022-10-01T10:26:01.067Z,36.65
2022-10-01T10:28:30.241Z,35.40
2022-10-01T10:30:59.893Z,35.53
2022-10-01T10:33:28.414Z,35.10
2022-10-01T10:36:02.190Z,35.92
2022-10-01T10:38:32.978Z,34.65
2022-10-01T10:41:01.743Z,38.15
2022-10-01T10:43:33.189Z,33.80
2022-10-01T10:46:03.051Z,31.98
2022-10-01T10:48:33.724Z,34.40
2022-10-01T10:51:03.562Z,31.83
2022-10-01T10:53:41.788Z,31.80
2022-10-01T10:56:21.169Z,33.42
2022-10-01T10:58:50.251Z,30.27
2022-10-01T11:01:26.510Z,33.03
2022-10-01T11:03:57.818Z,32.83
2022-10-01T11:06:26.304Z,32.53
2022-10-01T11:09:00.847Z,32.45
2022-10-01T11:11:47.383Z,32.30
2022-10-01T11:14:26.882Z,30.88
2022-10-01T11:17:13.055Z,30.00
2022-10-01T11:19:53.042Z,26.92
2022-10-01T11:22:32.901Z,26.38
2022-10-01T11:25:09.869Z,29.02
2022-10-01T11:27:46.452Z,19.30
2022-10-01T11:30:19.484Z,24.77
2022-10-01T11:32:55.023Z,21.75
2022-10-01T11:35:31.237Z,23.35
2022-10-01T11:38:23.483Z,24.83
2022-10-01T11:40:55.481Z,20.52
2022-10-01T11:43:26.904Z,19.52
2022-10-01T11:45:57.658Z,19.77
2022-10-01T11:48:32.664Z,15.65
2022-10-01T11:51:04.433Z,17.27
2022-10-01T11:53:38.062Z,15.38
2022-10-01T11:56:26.442Z,17.17
2022-10-01T11:58:58.546Z,19.85
2022-10-01T12:01:31.141Z,15.90
2022-10-01T12:04:08.779Z,21.80
2022-10-01T12:06:41.982Z,19.90
2022-10-01T12:09:15.636Z,17.40
2022-10-01T12:11:48.090Z,14.60
2022-10-01T12:14:20.068Z,17.23
2022-10-01T12:16:52.874Z,18.90
2022-10-01T12:19:25.250Z,20.90
2022-10-01T12:21:57.868Z,19.08
2022-10-01T12:24:29.540Z,19.00
2022-10-01T12:27:08.889Z,20.02
2022-10-01T12:29:45.415Z,19.67
2022-10-01T12:32:20.475Z,19.42
2022-10-01T12:34:58.529Z,19.23
2022-10-01T12:37:36.710Z,19.70
2022-10-01T12:40:13.686Z,18.92
2022-10-01T12:42:54.289Z,19.27
2022-10-01T12:45:29.863Z,24.40
2022-10-01T12:48:04.413Z,26.13
2022-10-01T12:50:42.211Z,28.08
2022-10-01T12:53:22.469Z,21.65
2022-10-01T12:55:56.734Z,24.27
2022-10-01T12:58:51.274Z,23.25
2022-10-01T13:01:28.186Z,24.75
2022-10-01T13:04:14.121Z,26.05
2022-10-01T13:06:53.040Z,25.25
2022-10-01T13:09:25.270Z,29.63
2022-10-01T13:12:03.171Z,25.13
2022-10-01T13:14:33.258Z,25.92
2022-10-01T13:17:06.037Z,30.08
2022-10-01T13:19:40.770Z,23.90
2022-10-01T13:22:16.365Z,23.00
2022-10-01T13:24:47.001Z,20.73
2022-10-01T13:27:19.689Z,14.73
2022-10-01T13:29:53.499Z,14.25
2022-10-01T13:32:28.677Z,13.93
2022-10-01T13:34:58.105Z,13.90
2022-10-01T13:37:36.520Z,11.88
2022-10-01T13:40:05.975Z,38.92
2022-10-01T13:42:43.206Z,14.63
2022-10-01T13:45:23.836Z,14.95
2022-10-01T13:47:52.418Z,23.35
2022-10-01T13:50:23.905Z,15.90
2022-10-01T13:52:54.128Z,18.77
2022-10-01T13:55:27.896Z,23.47
2022-10-01T13:58:06.122Z,16.55
2022-10-01T14:00:34.694Z,44.65
2022-10-01T14:03:06.198Z,18.33
2022-10-01T14:05:38.082Z,26.67
2022-10-01T14:08:15.740Z,25.60
2022-10-01T14:11:06.325Z,20.23
2022-10-01T14:13:55.653Z,21.02
2022-10-01T14:16:23.983Z,17.45
2022-10-01T14:18:52.746Z,25.70
2022-10-01T14:21:34.030Z,16.95
2022-10-01T14:24:10.378Z,21.58
2022-10-01T14:26:42.553Z,12.75
2022-10-01T14:29:18.925Z,11.95
2022-10-01T14:31:56.361Z,13.77
2022-10-01T14:34:34.184Z,17.58
2022-10-01T14:37:02.486Z,14.45
2022-10-01T14:39:33.429Z,14.98
2022-10-01T14:42:16.461Z,10.77
2022-10-01T14:44:47.304Z,11.45
2022-10-01T14:47:20.251Z,11.30
2022-10-01T14:49:49.188Z,9.27
2022-10-01T14:52:22.907Z,8.13
2022-10-01T14:54:58.959Z,8.57
2022-10-01T14:57:31.655Z,8.48
2022-10-01T15:00:02.748Z,9.50
2022-10-01T15:02:31.008Z,7.53
2022-10-01T15:04:59.376Z,7.28
2022-10-01T15:07:33.230Z,9.25
2022-10-01T15:10:09.490Z,9.98
2022-10-01T15:12:40.744Z,8.70
2022-10-01T15:15:20.101Z,9.80
2022-10-01T15:17:48.603Z,10.75
2022-10-01T15:20:17.460Z,13.00
2022-10-01T15:22:48.065Z,7.93
2022-10-01T15:25:21.095Z,7.15
2022-10-01T15:27:50.277Z,9.75
2022-10-01T15:30:19.704Z,7.60
2022-10-01T15:32:49.126Z,8.65
2022-10-01T15:35:20.256Z,7.57
2022-10-01T15:37:50.455Z,8.35
2022-10-01T15:40:27.471Z,9.48
2022-10-01T15:43:14.479Z,10.18
2022-10-01T15:45:42.955Z,9.38
2022-10-01T15:48:29.340Z,8.57
2022-10-01T15:51:01.196Z,9.40
2022-10-01T15:53:29.786Z,12.93
2022-10-01T15:56:00.296Z,11.27
2022-10-01T15:58:32.020Z,10.35
2022-10-01T16:01:03.054Z,9.38
2022-10-01T16:03:33.588Z,13.20
2022-10-01T16:06:02.903Z,10.02
2022-10-01T16:08:34.860Z,10.45
2022-10-01T16:11:18.137Z,11.88
2022-10-01T16:13:47.103Z,9.45
2022-10-01T16:16:21.935Z,8.35
2022-10-01T16:18:54.325Z,10.85
2022-10-01T16:21:23.321Z,9.93
2022-10-01T16:23:53.098Z,11.23
2022-10-01T16:26:40.249Z,13.43
2022-10-01T16:29:21.126Z,9.32
2022-10-01T16:31:49.410Z,10.68
2022-10-01T16:34:19.600Z,9.43
2022-10-01T16:36:47.833Z,11.60
2022-10-01T16:39:16.242Z,12.95
2022-10-01T16:42:01.386Z,14.50
2022-10-01T16:44:35.599Z,13.18
2022-10-01T16:47:03.954Z,14.25
2022-10-01T16:49:32.016Z,9.82
2022-10-01T16:52:00.195Z,12.18
2022-10-01T16:54:28.919Z,13.70
2022-10-01T16:57:00.374Z,14.00
2022-10-01T17:01:57.675Z,15.80
2022-10-01T17:04:30.366Z,13.32
2022-10-01T17:07:01.550Z,14.65
2022-10-01T17:09:29.587Z,17.75
2022-10-01T17:11:59.147Z,14.60
2022-10-01T17:14:27.938Z,18.20
2022-10-01T17:16:56.341Z,21.00
2022-10-01T17:19:24.700Z,17.65
2022-10-01T17:21:53.347Z,18.45
2022-10-01T17:24:21.444Z,15.32
2022-10-01T17:26:49.727Z,17.63
2022-10-01T17:29:19.440Z,21.95
2022-10-01T17:31:53.543Z,21.83
2022-10-01T17:34:22.281Z,23.92
2022-10-01T17:36:50.753Z,25.67
2022-10-01T17:39:18.878Z,24.15
2022-10-01T17:41:47.375Z,27.23
2022-10-01T17:44:15.482Z,23.67
2022-10-01T17:46:45.308Z,21.90
2022-10-01T17:49:14.685Z,20.65
2022-10-01T17:51:42.966Z,22.10
2022-10-01T17:54:11.445Z,15.32
2022-10-01T17:56:40.871Z,18.20
2022-10-01T17:59:09.117Z,19.40
2022-10-01T18:01:37.562Z,18.77
2022-10-01T18:04:07.220Z,15.57
2022-10-01T18:06:35.932Z,15.70
2022-10-01T18:09:04.484Z,14.68
2022-10-01T18:11:32.920Z,21.65
2022-10-01T18:14:01.237Z,16.30
2022-10-01T18:16:30.194Z,15.40
2022-10-01T18:21:51.212Z,13.77
2022-10-01T18:24:19.757Z,11.38
2022-10-01T18:26:48.102Z,9.63
2022-10-01T18:29:18.792Z,8.18
2022-10-01T18:31:47.103Z,10.37
2022-10-01T18:34:19.665Z,8.18
2022-10-01T18:36:55.234Z,8.05
2022-10-01T18:39:28.120Z,6.47
2022-10-01T18:41:57.903Z,5.68
2022-10-01T18:44:26.816Z,8.32
2022-10-01T18:47:04.902Z,6.68
2022-10-01T18:49:49.106Z,6.00
2022-10-01T18:52:25.503Z,7.35
2022-10-01T18:55:05.506Z,6.28
2022-10-01T18:57:46.375Z,8.10
2022-10-01T19:00:16.262Z,8.68
2022-10-01T19:02:54.261Z,5.30
2022-10-01T19:05:50.103Z,6.22
2022-10-01T19:08:29.933Z,4.95
2022-10-01T19:11:04.891Z,5.75
2022-10-01T19:13:39.899Z,6.00
2022-10-01T19:16:18.143Z,7.15
2022-10-01T19:18:59.036Z,6.90
2022-10-01T19:21:32.850Z,8.35
2022-10-01T19:24:20.528Z,10.35
2022-10-01T19:26:54.001Z,6.47
2022-10-01T19:29:34.162Z,6.72
2022-10-01T19:32:04.348Z,6.28
2022-10-01T19:34:35.890Z,6.47
2022-10-01T19:37:07.955Z,8.60
2022-10-01T19:39:39.801Z,4.97
2022-10-01T19:42:11.678Z,4.20
2022-10-01T19:44:44.351Z,4.63
2022-10-01T19:47:29.678Z,7.15
2022-10-01T19:50:01.756Z,3.88
2022-10-01T19:52:34.560Z,3.90
2022-10-01T19:55:07.029Z,4.43
2022-10-01T19:57:39.269Z,6.07
2022-10-01T20:00:17.700Z,5.40
2022-10-01T20:02:52.069Z,5.88
2022-10-01T20:05:22.962Z,9.05
2022-10-01T20:08:00.709Z,12.63
2022-10-01T20:10:38.341Z,8.48
2022-10-01T20:13:27.550Z,7.97
2022-10-01T20:16:01.225Z,8.52
2022-10-01T20:18:35.267Z,6.85
2022-10-01T20:21:12.644Z,8.32
2022-10-01T20:23:46.946Z,8.18
2022-10-01T20:26:25.006Z,5.82
2022-10-01T20:29:11.603Z,8.40
2022-10-01T20:31:43.906Z,7.43
2022-10-01T20:34:19.501Z,8.88
2022-10-01T20:36:52.618Z,6.97
2022-10-01T20:39:26.283Z,7.03
2022-10-01T20:41:56.365Z,6.93
2022-10-01T20:44:27.915Z,11.38
2022-10-01T20:47:00.327Z,7.80
2022-10-01T20:49:32.406Z,8.73
2022-10-01T20:52:05.485Z,11.75
2022-10-01T20:54:37.392Z,10.13
2022-10-01T20:57:10.862Z,10.95
2022-10-01T20:59:42.178Z,9.85
2022-10-01T21:02:24.765Z,11.20
2022-10-01T21:04:57.505Z,11.52
2022-10-01T21:07:31.619Z,10.20
2022-10-01T21:10:03.393Z,9.45
2022-10-01T21:12:37.092Z,10.90
2022-10-01T21:15:07.448Z,11.23
2022-10-01T21:17:42.205Z,11.65
2022-10-01T21:20:21.441Z,10.20
2022-10-01T21:22:59.370Z,9.43
2022-10-01T21:25:38.552Z,9.32
2022-10-01T21:28:21.221Z,10.68
2022-10-01T21:31:00.109Z,10.18
2022-10-01T21:33:32.944Z,9.60
2022-10-01T21:36:04.187Z,11.73
2022-10-01T21:38:35.245Z,10.43
2022-10-01T21:41:36.598Z,9.25
2022-10-01T21:44:25.264Z,11.00
2022-10-01T21:46:58.249Z,13.85
2022-10-01T21:49:34.476Z,9.73
2022-10-01T21:52:11.736Z,10.82
2022-10-01T21:55:00.926Z,10.77
2022-10-01T21:57:40.940Z,9.40
2022-10-01T22:00:19.088Z,9.85
2022-10-01T22:03:06.347Z,9.07
2022-10-01T22:05:38.813Z,7.28
2022-10-01T22:08:35.716Z,7.82
2022-10-01T22:11:05.960Z,7.30
2022-10-01T22:13:36.398Z,6.43
2022-10-01T22:16:09.801Z,6.03
2022-10-01T22:18:41.769Z,8.18
2022-10-01T22:21:13.275Z,7.05
2022-10-01T22:23:45.161Z,6.50
2022-10-01T22:26:16.546Z,7.50
2022-10-01T22:28:48.617Z,5.82
2022-10-01T22:31:21.181Z,7.38
2022-10-01T22:33:53.858Z,7.82
2022-10-01T22:36:25.996Z,8.13
2022-10-01T22:38:57.393Z,7.97
2022-10-01T22:41:29.861Z,7.10
2022-10-01T22:43:58.434Z,7.45
2022-10-01T22:46:46.652Z,8.43
2022-10-01T22:49:24.140Z,8.45
2022-10-01T22:52:01.895Z,7.50
2022-10-01T22:54:36.507Z,8.32
2022-10-01T22:57:13.962Z,11.73
2022-10-01T22:59:49.250Z,8.07
2022-10-01T23:02:26.255Z,10.43
2022-10-01T23:05:07.372Z,8.75
2022-10-01T23:07:42.405Z,10.10
2022-10-01T23:10:15.398Z,10.88
2022-10-01T23:13:01.296Z,9.02
2022-10-01T23:15:36.050Z,8.55
2022-10-01T23:18:11.057Z,8.00
2022-10-01T23:20:46.020Z,8.55
2022-10-01T23:23:30.953Z,8.63
2022-10-01T23:26:18.527Z,8.73
2022-10-01T23:28:55.711Z,9.63
2022-10-01T23:31:31.396Z,6.53
2022-10-01T23:34:10.259Z,9.57
2022-10-01T23:36:46.837Z,11.40
2022-10-01T23:39:38.246Z,9.77
2022-10-01T23:44:41.265Z,10.57
2022-10-01T23:47:13.494Z,8.82
2022-10-01T23:49:48.817Z,8.10
2022-10-01T23:52:22.487Z,8.25
2022-10-01T23:54:52.731Z,8.02
2022-10-01T23:57:24.458Z,6.87
